createdAt,value
2022-10-28T00:02:27.394Z,100.00
2022-10-28T00:07:29.719Z,100.00
2022-10-28T00:12:36.190Z,100.00
2022-10-28T00:17:37.904Z,100.00
2022-10-28T00:22:39.680Z,100.00
2022-10-28T00:27:41.448Z,100.00
2022-10-28T00:32:43.363Z,100.00
2022-10-28T00:37:45.158Z,100.00
2022-10-28T00:42:47.197Z,100.00
2022-10-28T00:48:02.975Z,100.00
2022-10-28T00:53:25.356Z,100.00
2022-10-28T00:58:28.352Z,100.00
2022-10-28T01:03:30.296Z,100.00
2022-10-28T01:08:32.278Z,100.00
2022-10-28T01:13:55.542Z,100.00
2022-10-28T01:19:15.471Z,100.00
2022-10-28T01:24:55.386Z,100.00
2022-10-28T01:30:11.205Z,100.00
2022-10-28T01:35:47.359Z,100.00
2022-10-28T01:40:58.405Z,100.00
2022-10-28T01:46:22.885Z,100.00
2022-10-28T01:51:43.663Z,100.00
2022-10-28T01:56:47.257Z,100.00
2022-10-28T02:01:49.284Z,100.00
2022-10-28T02:06:54.645Z,100.00
2022-10-28T02:12:02.604Z,100.00
2022-10-28T02:17:06.998Z,100.00
2022-10-28T02:22:11.433Z,100.00
2022-10-28T02:27:21.854Z,100.00
2022-10-28T02:32:28.077Z,100.00
2022-10-28T02:37:34.306Z,100.00
2022-10-28T02:42:46.651Z,100.00
2022-10-28T02:47:54.622Z,100.00
2022-10-28T02:52:59.722Z,100.00
2022-10-28T02:58:01.870Z,100.00
2022-10-28T03:03:04.268Z,100.00
2022-10-28T03:08:06.123Z,100.00
2022-10-28T03:13:07.848Z,100.00
2022-10-28T03:18:09.592Z,100.00
2022-10-28T03:23:11.318Z,100.00
2022-10-28T03:28:13.102Z,100.00
2022-10-28T03:33:15.530Z,100.00
2022-10-28T03:38:17.339Z,100.00
2022-10-28T03:43:19.083Z,100.00
2022-10-28T03:48:20.904Z,100.00
2022-10-28T03:53:26.171Z,100.00
2022-10-28T03:58:30.981Z,100.00
2022-10-28T04:03:33.131Z,100.00
2022-10-28T04:08:34.905Z,100.00
2022-10-28T04:13:36.832Z,100.00
2022-10-28T04:18:38.611Z,100.00
2022-10-28T04:23:40.348Z,100.00
2022-10-28T04:28:42.093Z,100.00
2022-10-28T04:33:44.033Z,100.00
2022-10-28T04:38:46.050Z,100.00
2022-10-28T04:43:47.815Z,100.00
2022-10-28T04:48:49.585Z,100.00
2022-10-28T04:53:51.596Z,100.00
2022-10-28T04:58:53.336Z,100.00
2022-10-28T05:03:55.203Z,100.00
2022-10-28T05:08:56.962Z,100.00
2022-10-28T05:13:58.993Z,100.00
2022-10-28T05:19:00.913Z,100.00
2022-10-28T05:24:02.702Z,100.00
2022-10-28T05:29:04.535Z,100.00
2022-10-28T05:34:06.392Z,100.00
2022-10-28T05:39:08.146Z,100.00
2022-10-28T05:44:10.008Z,100.00
2022-10-28T05:49:11.795Z,100.00
2022-10-28T05:54:13.563Z,100.00
2022-10-28T05:59:15.312Z,100.00
2022-10-28T06:04:27.540Z,100.00
2022-10-28T06:09:32.523Z,100.00
2022-10-28T06:14:32.952Z,100.00
2022-10-28T06:19:34.744Z,100.00
2022-10-28T06:24:36.517Z,100.00
2022-10-28T06:29:38.395Z,100.00
2022-10-28T06:34:40.219Z,100.00
2022-10-28T06:39:43.044Z,100.00
2022-10-28T06:44:45.121Z,100.00
2022-10-28T06:49:48.544Z,100.00
2022-10-28T06:54:50.300Z,100.00
2022-10-28T06:59:52.082Z,100.00
2022-10-28T07:04:53.890Z,100.00
2022-10-28T07:09:55.616Z,100.00
2022-10-28T07:14:57.386Z,100.00
2022-10-28T07:19:59.346Z,100.00
2022-10-28T07:25:01.160Z,100.00
2022-10-28T07:30:03.046Z,100.00
2022-10-28T07:35:05.340Z,100.00
2022-10-28T07:40:07.723Z,100.00
2022-10-28T07:45:09.700Z,100.00
2022-10-28T07:50:12.515Z,100.00
2022-10-28T07:55:14.532Z,100.00
2022-10-28T08:00:16.569Z,100.00
2022-10-28T08:05:18.553Z,100.00
2022-10-28T08:10:20.286Z,100.00
2022-10-28T08:15:24.073Z,100.00
2022-10-28T08:20:25.904Z,100.00
2022-10-28T08:25:30.232Z,100.00
2022-10-28T08:30:40.371Z,99.83
2022-10-28T08:35:52.292Z,99.05
2022-10-28T08:41:07.011Z,97.86
2022-10-28T08:46:27.394Z,98.21
2022-10-28T08:51:54.029Z,97.54
2022-10-28T08:56:59.824Z,97.14
2022-10-28T09:02:19.695Z,97.43
2022-10-28T09:07:23.165Z,97.22
2022-10-28T09:12:47.123Z,96.92
2022-10-28T09:18:04.579Z,96.85
2022-10-28T09:23:21.595Z,96.29
2022-10-28T09:28:29.561Z,95.44
2022-10-28T09:33:46.267Z,95.19
2022-10-28T09:38:51.551Z,94.96
2022-10-28T09:44:23.769Z,94.38
2022-10-28T09:49:30.233Z,93.34
2022-10-28T09:54:39.556Z,93.39
2022-10-28T09:59:41.336Z,93.22
2022-10-28T10:04:43.233Z,92.99
2022-10-28T10:09:45.427Z,92.20
2022-10-28T10:14:50.782Z,91.57
2022-10-28T10:20:00.455Z,91.34
2022-10-28T10:25:18.018Z,90.50
2022-10-28T10:30:24.825Z,90.29
2022-10-28T10:35:30.384Z,90.60
2022-10-28T10:40:42.080Z,90.15
2022-10-28T10:46:01.190Z,89.68
2022-10-28T10:51:24.973Z,89.10
2022-10-28T10:56:31.240Z,89.23
2022-10-28T11:01:40.072Z,87.95
2022-10-28T11:06:44.222Z,87.39
2022-10-28T11:11:46.023Z,88.31
2022-10-28T11:16:59.212Z,87.63
2022-10-28T11:22:06.781Z,87.18
2022-10-28T11:27:32.095Z,86.07
2022-10-28T11:33:08.435Z,85.61
2022-10-28T11:38:43.259Z,85.04
2022-10-28T11:44:03.834Z,85.05
2022-10-28T11:49:38.866Z,84.88
2022-10-28T11:55:18.699Z,83.98
2022-10-28T12:00:29.567Z,83.67
2022-10-28T12:05:53.697Z,82.32
2022-10-28T12:11:11.066Z,81.53
2022-10-28T12:16:42.754Z,81.93
2022-10-28T12:21:56.622Z,82.74
2022-10-28T12:27:00.793Z,83.10
2022-10-28T12:32:07.998Z,83.14
2022-10-28T12:37:21.915Z,82.30
2022-10-28T12:42:38.855Z,81.97
2022-10-28T12:47:48.474Z,81.89
2022-10-28T12:53:02.012Z,82.17
2022-10-28T12:58:32.018Z,82.70
2022-10-28T13:03:33.862Z,82.85
2022-10-28T13:14:03.741Z,82.74
2022-10-28T13:19:15.112Z,82.80
2022-10-28T13:24:49.387Z,82.95
2022-10-28T13:29:58.199Z,83.31
2022-10-28T13:35:01.312Z,82.57
2022-10-28T13:40:03.084Z,82.75
2022-10-28T13:45:05.110Z,82.97
2022-10-28T13:50:07.643Z,83.12
2022-10-28T13:55:22.047Z,83.05
2022-10-28T14:00:24.208Z,82.72
2022-10-28T14:05:45.979Z,82.24
2022-10-28T14:11:00.062Z,82.75
2022-10-28T14:16:26.195Z,83.04
2022-10-28T14:21:45.450Z,83.29
2022-10-28T14:27:06.482Z,83.67
2022-10-28T14:32:33.116Z,84.18
2022-10-28T14:38:12.611Z,84.70
2022-10-28T14:43:33.319Z,85.01
2022-10-28T14:48:49.301Z,85.36
2022-10-28T14:53:57.450Z,85.67
2022-10-28T14:59:24.336Z,85.96
2022-10-28T15:04:26.475Z,86.32
2022-10-28T15:09:31.481Z,86.65
2022-10-28T15:14:37.833Z,86.99
2022-10-28T15:19:40.162Z,87.56
2022-10-28T15:24:46.188Z,88.03
2022-10-28T15:29:50.598Z,88.61
2022-10-28T15:34:52.436Z,89.07
2022-10-28T15:40:12.909Z,89.61
2022-10-28T15:45:20.224Z,89.89
2022-10-28T15:50:36.494Z,90.10
2022-10-28T15:56:02.782Z,90.59
2022-10-28T16:01:28.825Z,91.15
2022-10-28T16:06:36.906Z,91.65
2022-10-28T16:11:44.464Z,92.38
2022-10-28T16:16:46.563Z,92.80
2022-10-28T16:21:48.395Z,93.64
2022-10-28T16:26:50.173Z,93.97
2022-10-28T16:31:52.841Z,94.15
2022-10-28T16:36:54.713Z,94.46
2022-10-28T16:41:57.702Z,94.41
2022-10-28T16:46:59.551Z,94.69
2022-10-28T16:52:03.056Z,95.00
2022-10-28T16:57:05.077Z,95.28
2022-10-28T17:02:17.659Z,95.45
2022-10-28T17:07:19.581Z,95.81
2022-10-28T17:12:24.394Z,95.99
2022-10-28T17:17:26.178Z,96.10
2022-10-28T17:22:27.934Z,96.44
2022-10-28T17:27:29.857Z,97.44
2022-10-28T17:32:31.588Z,97.39
2022-10-28T17:37:33.815Z,97.32
2022-10-28T17:42:35.661Z,97.32
2022-10-28T17:47:37.595Z,97.82
2022-10-28T17:59:15.315Z,98.84
2022-10-28T18:04:17.255Z,99.04
2022-10-28T18:09:19.280Z,99.12
2022-10-28T18:14:21.258Z,99.58
2022-10-28T18:19:23.169Z,99.33
2022-10-28T18:24:26.134Z,99.30
2022-10-28T18:29:28.249Z,99.57
2022-10-28T18:34:30.694Z,99.44
2022-10-28T18:39:32.448Z,99.48
2022-10-28T18:44:34.331Z,99.35
2022-10-28T18:49:36.123Z,99.23
2022-10-28T18:54:37.960Z,99.41
2022-10-28T18:59:52.342Z,99.22
2022-10-28T19:05:01.758Z,99.16
2022-10-28T19:10:05.152Z,99.37
2022-10-28T19:15:07.350Z,99.59
2022-10-28T19:20:09.711Z,99.52
2022-10-28T19:25:11.918Z,99.66
2022-10-28T19:30:13.900Z,99.67
2022-10-28T19:35:15.812Z,99.48
2022-10-28T19:40:17.636Z,99.91
2022-10-28T19:45:19.456Z,99.82
2022-10-28T19:50:21.512Z,99.93
2022-10-28T19:55:23.297Z,100.00
2022-10-28T20:00:25.106Z,100.00
2022-10-28T20:05:26.985Z,100.00
2022-10-28T20:10:28.871Z,100.00
2022-10-28T20:15:30.820Z,100.00
2022-10-28T20:20:34.847Z,100.00
2022-10-28T20:25:36.680Z,100.00
2022-10-28T20:30:38.437Z,100.00
2022-10-28T20:35:40.235Z,100.00
2022-10-28T20:40:42.033Z,100.00
2022-10-28T20:45:43.854Z,100.00
2022-10-28T20:50:50.290Z,100.00
2022-10-28T20:55:54.631Z,100.00
2022-10-28T21:01:03.732Z,100.00
2022-10-28T21:06:05.820Z,100.00
2022-10-28T21:11:10.853Z,100.00
2022-10-28T21:16:15.305Z,100.00
2022-10-28T21:21:18.681Z,100.00
2022-10-28T21:26:20.896Z,100.00
2022-10-28T21:31:23.659Z,100.00
2022-10-28T21:36:25.424Z,100.00
2022-10-28T21:41:27.217Z,100.00
2022-10-28T21:46:29.024Z,100.00
2022-10-28T21:51:30.900Z,100.00
2022-10-28T21:56:32.663Z,100.00
2022-10-28T22:01:35.907Z,100.00
2022-10-28T22:06:37.862Z,100.00
2022-10-28T22:11:40.683Z,100.00
2022-10-28T22:16:42.441Z,100.00
2022-10-28T22:21:44.641Z,100.00
2022-10-28T22:26:46.562Z,100.00
2022-10-28T22:31:48.424Z,100.00
2022-10-28T22:36:50.497Z,100.00
2022-10-28T22:41:52.254Z,100.00
2022-10-28T22:46:54.288Z,100.00
2022-10-28T22:51:56.138Z,100.00
2022-10-28T22:56:57.943Z,100.00
2022-10-28T23:01:59.793Z,100.00
2022-10-28T23:07:01.756Z,100.00
2022-10-28T23:12:08.034Z,100.00
2022-10-28T23:17:09.820Z,100.00
2022-10-28T23:22:11.740Z,100.00
2022-10-28T23:27:13.475Z,100.00
2022-10-28T23:32:16.773Z,100.00
2022-10-28T23:37:18.610Z,100.00
2022-10-28T23:42:20.405Z,100.00
2022-10-28T23:47:26.348Z,100.00
2022-10-28T23:52:28.176Z,100.00
2022-10-28T23:57:29.951Z,100.00
